Time;durP1;ratioP1;P1;durP2;ratioP2;P2;SDS_P1;SDS_P2;PMS_P1;PMS_P2;Temp;Humidity;BMP_temperature;BMP_pressure;BME280_temperature;BME280_humidity;BME280_pressure;Samples;Min_cycle;Max_cycle;Signal;HPM_P1;HPM_P2
2021/06/08 00:00:54;;;;;;;;;;;21.60;53.50;;;;;;500095;238;2141;-76
2021/06/08 00:02:55;;;;;;;;;;;21.60;53.40;;;;;;499969;238;1164;-76
2021/06/08 00:04:57;;;;;;;;;;;21.60;53.50;;;;;;499966;238;954;-76
2021/06/08 00:06:58;;;;;;;;;;;21.50;53.70;;;;;;499900;238;1036;-76
2021/06/08 00:08:59;;;;;;;;;;;21.50;53.70;;;;;;499965;238;1049;-76
2021/06/08 00:11:01;;;;;;;;;;;21.50;53.70;;;;;;499864;238;1340;-76
2021/06/08 00:13:02;;;;;;;;;;;21.50;53.70;;;;;;499946;238;1056;-76
2021/06/08 00:15:03;;;;;;;;;;;21.50;53.70;;;;;;500053;238;1188;-76
2021/06/08 00:17:05;;;;;;;;;;;21.50;53.70;;;;;;499981;238;1149;-76
2021/06/08 00:19:06;;;;;;;;;;;21.50;53.70;;;;;;499878;238;1010;-76
2021/06/08 00:21:07;;;;;;;;;;;21.50;53.80;;;;;;499810;238;2195;-76
2021/06/08 00:23:08;;;;;;;;;;;21.40;53.80;;;;;;499909;238;1080;-76
2021/06/08 00:25:10;;;;;;;;;;;21.40;53.90;;;;;;499969;238;1046;-76
2021/06/08 00:27:11;;;;;;;;;;;21.50;53.90;;;;;;500171;238;1083;-76
2021/06/08 00:29:12;;;;;;;;;;;21.50;53.80;;;;;;499989;238;1071;-76
2021/06/08 00:31:14;;;;;;;;;;;21.50;53.70;;;;;;499908;238;1182;-76
2021/06/08 00:33:15;;;;;;;;;;;21.50;53.70;;;;;;500041;238;1103;-76
2021/06/08 00:35:16;;;;;;;;;;;21.50;53.70;;;;;;499988;238;1110;-76
2021/06/08 00:37:18;;;;;;;;;;;21.40;53.70;;;;;;499856;238;1092;-76
2021/06/08 00:39:19;;;;;;;;;;;21.50;53.70;;;;;;499901;238;1038;-76
2021/06/08 00:41:20;;;;;;;;;;;21.50;53.80;;;;;;499799;238;2187;-76
2021/06/08 00:43:21;;;;;;;;;;;21.40;53.90;;;;;;500047;238;1105;-77
2021/06/08 00:45:23;;;;;;;;;;;21.40;53.90;;;;;;499929;238;997;-76
2021/06/08 00:47:24;;;;;;;;;;;21.40;53.90;;;;;;499852;238;1159;-76
2021/06/08 00:49:25;;;;;;;;;;;21.40;53.90;;;;;;500023;238;1069;-76
2021/06/08 00:51:26;;;;;;;;;;;21.50;53.90;;;;;;499926;234;1421;-76
2021/06/08 00:53:28;;;;;;;;;;;21.40;53.80;;;;;;499945;238;1043;-76
2021/06/08 00:55:29;;;;;;;;;;;21.50;53.70;;;;;;499926;238;1214;-76
2021/06/08 00:57:30;;;;;;;;;;;21.50;53.60;;;;;;499775;238;1215;-76
2021/06/08 00:59:32;;;;;;;;;;;21.50;53.50;;;;;;500093;238;1020;-76
2021/06/08 01:01:33;;;;;;;;;;;21.50;53.60;;;;;;499937;238;2176;-76
2021/06/08 01:03:34;;;;;;;;;;;21.50;53.70;;;;;;500026;238;1157;-76
2021/06/08 01:05:36;;;;;;;;;;;21.50;53.70;;;;;;499992;238;974;-76
2021/06/08 01:07:37;;;;;;;;;;;21.50;53.60;;;;;;499882;238;1325;-76
2021/06/08 01:09:38;;;;;;;;;;;21.40;53.70;;;;;;499957;238;1178;-76
2021/06/08 01:11:39;;;;;;;;;;;21.50;53.80;;;;;;499943;238;1187;-76
2021/06/08 01:13:41;;;;;;;;;;;21.40;53.90;;;;;;499848;238;1041;-76
2021/06/08 01:15:42;;;;;;;;;;;21.30;54.20;;;;;;499938;238;1032;-76
2021/06/08 01:17:43;;;;;;;;;;;21.30;54.20;;;;;;499832;238;1328;-76
2021/06/08 01:19:44;;;;;;;;;;;21.30;54.30;;;;;;499916;238;1013;-76
2021/06/08 01:21:46;;;;;;;;;;;21.20;54.30;;;;;;499829;238;2176;-76
2021/06/08 01:23:47;;;;;;;;;;;21.30;54.20;;;;;;499999;238;1089;-76
2021/06/08 01:25:49;;;;;;;;;;;21.30;54.20;;;;;;499948;238;1070;-76
2021/06/08 01:27:50;;;;;;;;;;;21.30;54.30;;;;;;500005;238;1054;-76
2021/06/08 01:29:51;;;;;;;;;;;21.20;54.30;;;;;;500001;238;1012;-76
2021/06/08 01:31:52;;;;;;;;;;;21.30;54.20;;;;;;499937;238;1094;-76
2021/06/08 01:33:54;;;;;;;;;;;21.30;54.20;;;;;;499921;238;1215;-76
2021/06/08 01:35:55;;;;;;;;;;;21.30;54.20;;;;;;499888;238;1034;-76
2021/06/08 01:37:56;;;;;;;;;;;21.30;54.30;;;;;;500012;238;1042;-76
2021/06/08 01:39:58;;;;;;;;;;;21.30;54.20;;;;;;499906;238;1153;-76
2021/06/08 01:41:59;;;;;;;;;;;21.30;54.20;;;;;;499871;238;2180;-76
2021/06/08 01:44:00;;;;;;;;;;;21.30;54.20;;;;;;499886;238;993;-76
2021/06/08 01:46:01;;;;;;;;;;;21.30;54.20;;;;;;499953;234;1162;-76
2021/06/08 01:48:03;;;;;;;;;;;21.20;54.20;;;;;;499915;238;1165;-76
2021/06/08 01:50:04;;;;;;;;;;;21.20;54.40;;;;;;499953;238;968;-76
2021/06/08 01:52:06;;;;;;;;;;;21.20;54.30;;;;;;499942;238;1091;-76
2021/06/08 01:54:07;;;;;;;;;;;21.30;54.20;;;;;;499911;238;981;-76
2021/06/08 01:56:08;;;;;;;;;;;21.40;53.90;;;;;;499975;234;1143;-76
2021/06/08 01:58:09;;;;;;;;;;;21.50;53.50;;;;;;499942;238;1157;-76
2021/06/08 02:00:11;;;;;;;;;;;21.60;53.30;;;;;;500002;238;967;-76
2021/06/08 02:02:12;;;;;;;;;;;21.60;53.20;;;;;;500006;238;2108;-76
2021/06/08 02:04:13;;;;;;;;;;;21.70;53.20;;;;;;499986;238;1135;-76
2021/06/08 02:06:15;;;;;;;;;;;21.70;53.20;;;;;;499910;238;1126;-76
2021/06/08 02:08:16;;;;;;;;;;;21.70;53.10;;;;;;499839;238;1096;-76
2021/06/08 02:10:17;;;;;;;;;;;21.70;53.20;;;;;;499956;238;1156;-76
2021/06/08 02:12:18;;;;;;;;;;;21.70;53.00;;;;;;499817;238;1150;-76
2021/06/08 02:14:20;;;;;;;;;;;21.70;53.10;;;;;;499919;238;1040;-76
2021/06/08 02:16:21;;;;;;;;;;;21.70;53.10;;;;;;499873;234;1206;-76
2021/06/08 02:18:23;;;;;;;;;;;21.70;53.00;;;;;;500024;238;1152;-76
2021/06/08 02:20:24;;;;;;;;;;;21.70;53.00;;;;;;500102;238;2136;-76
2021/06/08 02:22:25;;;;;;;;;;;21.60;53.10;;;;;;499972;238;1110;-76
2021/06/08 02:24:26;;;;;;;;;;;21.70;53.10;;;;;;499854;238;1078;-76
2021/06/08 02:26:27;;;;;;;;;;;21.70;52.90;;;;;;499891;238;1155;-76
2021/06/08 02:28:29;;;;;;;;;;;21.70;52.80;;;;;;499894;238;1076;-76
2021/06/08 02:30:30;;;;;;;;;;;21.70;52.80;;;;;;499933;238;1046;-76
2021/06/08 02:32:31;;;;;;;;;;;21.70;52.80;;;;;;499913;238;1522;-76
2021/06/08 02:34:33;;;;;;;;;;;21.80;52.90;;;;;;499923;238;1182;-76
2021/06/08 02:36:34;;;;;;;;;;;21.80;52.80;;;;;;500016;234;1294;-76
2021/06/08 02:38:35;;;;;;;;;;;21.80;52.70;;;;;;499947;238;1058;-76
2021/06/08 02:40:36;;;;;;;;;;;21.90;52.60;;;;;;499917;238;2171;-76
2021/06/08 02:42:38;;;;;;;;;;;21.90;52.60;;;;;;499969;238;1120;-76
2021/06/08 02:44:39;;;;;;;;;;;21.80;52.60;;;;;;499961;238;1082;-76
2021/06/08 02:46:41;;;;;;;;;;;21.80;52.70;;;;;;499943;238;1192;-76
2021/06/08 02:48:42;;;;;;;;;;;21.80;52.70;;;;;;499894;238;1152;-76
2021/06/08 02:50:43;;;;;;;;;;;21.80;52.70;;;;;;499960;238;1162;-76
2021/06/08 02:52:45;;;;;;;;;;;21.80;52.60;;;;;;500036;238;1063;-76
2021/06/08 02:54:46;;;;;;;;;;;21.80;52.70;;;;;;499912;238;1042;-76
2021/06/08 02:56:47;;;;;;;;;;;21.70;52.80;;;;;;499998;238;1215;-76
2021/06/08 02:58:48;;;;;;;;;;;21.70;52.90;;;;;;499983;238;1001;-76
2021/06/08 03:00:50;;;;;;;;;;;21.70;53.00;;;;;;499902;235;2172;-76
2021/06/08 03:02:51;;;;;;;;;;;21.70;52.80;;;;;;499947;238;1058;-76
2021/06/08 03:04:52;;;;;;;;;;;21.70;52.90;;;;;;499888;238;1129;-76
2021/06/08 03:06:54;;;;;;;;;;;21.70;52.90;;;;;;499844;238;1152;-76
2021/06/08 03:08:55;;;;;;;;;;;21.70;52.90;;;;;;499854;238;1129;-76
2021/06/08 03:10:56;;;;;;;;;;;21.70;53.00;;;;;;499885;238;987;-76
2021/06/08 03:12:57;;;;;;;;;;;21.70;53.00;;;;;;499934;238;1074;-76
2021/06/08 03:14:59;;;;;;;;;;;21.70;53.00;;;;;;499940;238;1050;-76
2021/06/08 03:17:00;;;;;;;;;;;21.70;52.90;;;;;;499921;238;1049;-76
2021/06/08 03:19:01;;;;;;;;;;;21.70;52.90;;;;;;500070;238;1144;-76
2021/06/08 03:21:03;;;;;;;;;;;21.70;53.00;;;;;;499936;238;2179;-76
2021/06/08 03:23:04;;;;;;;;;;;21.70;53.10;;;;;;499859;238;1151;-76
2021/06/08 03:25:05;;;;;;;;;;;21.70;52.90;;;;;;499911;238;984;-76
2021/06/08 03:27:06;;;;;;;;;;;21.70;52.90;;;;;;499877;238;1103;-76
2021/06/08 03:29:08;;;;;;;;;;;21.70;52.90;;;;;;499896;238;980;-76
2021/06/08 03:31:09;;;;;;;;;;;21.70;52.80;;;;;;499936;238;1082;-76
2021/06/08 03:33:10;;;;;;;;;;;21.70;52.70;;;;;;500039;238;1064;-76
2021/06/08 03:35:12;;;;;;;;;;;21.80;52.70;;;;;;499967;238;1313;-76
2021/06/08 03:37:13;;;;;;;;;;;21.80;52.60;;;;;;500056;238;1036;-76
2021/06/08 03:39:14;;;;;;;;;;;21.80;52.50;;;;;;499996;238;1007;-76
2021/06/08 03:41:15;;;;;;;;;;;21.70;52.70;;;;;;499901;238;2129;-76
2021/06/08 03:43:17;;;;;;;;;;;21.70;52.70;;;;;;499899;238;1035;-76
2021/06/08 03:45:18;;;;;;;;;;;21.70;52.80;;;;;;499977;238;1077;-76
2021/06/08 03:47:20;;;;;;;;;;;21.70;52.90;;;;;;499938;238;1029;-76
2021/06/08 03:49:21;;;;;;;;;;;21.70;52.80;;;;;;499977;238;1128;-76
2021/06/08 03:51:22;;;;;;;;;;;21.70;52.90;;;;;;499916;238;1195;-76
2021/06/08 03:53:25;;;;;;;;;;;21.70;52.70;;;;;;499982;238;1018;-76
2021/06/08 03:55:25;;;;;;;;;;;21.70;52.80;;;;;;500008;238;1355;-76
2021/06/08 03:57:28;;;;;;;;;;;21.70;52.80;;;;;;499947;238;1037;-76
2021/06/08 03:59:28;;;;;;;;;;;21.70;52.80;;;;;;500035;238;1399;-76
2021/06/08 04:01:29;;;;;;;;;;;21.80;52.70;;;;;;499860;238;2168;-76
2021/06/08 04:03:30;;;;;;;;;;;21.70;52.70;;;;;;499991;238;1100;-76
2021/06/08 04:05:32;;;;;;;;;;;21.70;52.70;;;;;;499893;238;1166;-77
2021/06/08 04:07:33;;;;;;;;;;;21.70;52.80;;;;;;499858;238;1123;-77
2021/06/08 04:09:34;;;;;;;;;;;21.70;52.90;;;;;;499952;238;1120;-76
2021/06/08 04:11:35;;;;;;;;;;;21.70;52.70;;;;;;499751;238;1229;-76
2021/06/08 04:13:37;;;;;;;;;;;21.70;52.70;;;;;;499905;238;994;-76
2021/06/08 04:15:38;;;;;;;;;;;21.70;52.70;;;;;;499831;238;1231;-76
2021/06/08 04:17:39;;;;;;;;;;;21.70;52.70;;;;;;499848;238;1040;-76
2021/06/08 04:19:41;;;;;;;;;;;21.70;52.70;;;;;;500069;238;1260;-76
2021/06/08 04:21:42;;;;;;;;;;;21.70;52.70;;;;;;499769;238;2184;-76
2021/06/08 04:23:43;;;;;;;;;;;21.70;52.70;;;;;;499843;238;1037;-76
2021/06/08 04:25:44;;;;;;;;;;;21.70;52.80;;;;;;499897;238;1222;-76
2021/06/08 04:27:46;;;;;;;;;;;21.70;52.80;;;;;;499832;238;1090;-76
2021/06/08 04:29:47;;;;;;;;;;;21.70;52.80;;;;;;500000;238;1024;-76
2021/06/08 04:31:49;;;;;;;;;;;21.80;52.70;;;;;;499947;235;1179;-76
2021/06/08 04:33:50;;;;;;;;;;;21.80;52.60;;;;;;499913;238;1000;-76
2021/06/08 04:35:51;;;;;;;;;;;21.80;52.60;;;;;;499821;238;1177;-76
2021/06/08 04:37:53;;;;;;;;;;;21.80;52.60;;;;;;499803;238;1143;-76
2021/06/08 04:39:54;;;;;;;;;;;21.80;52.70;;;;;;499773;238;1026;-76
2021/06/08 04:41:55;;;;;;;;;;;21.70;52.80;;;;;;499627;238;2141;-76
2021/06/08 04:43:57;;;;;;;;;;;21.70;52.80;;;;;;499762;238;1101;-77
2021/06/08 04:45:58;;;;;;;;;;;21.70;52.80;;;;;;499695;238;1190;-77
2021/06/08 04:47:59;;;;;;;;;;;21.70;52.70;;;;;;499754;238;1143;-77
2021/06/08 04:50:01;;;;;;;;;;;21.70;52.80;;;;;;499727;238;1171;-77
2021/06/08 04:52:02;;;;;;;;;;;21.70;52.90;;;;;;499827;238;1206;-77
2021/06/08 04:54:03;;;;;;;;;;;21.70;52.90;;;;;;499719;238;1034;-77
2021/06/08 04:56:05;;;;;;;;;;;21.70;52.90;;;;;;499730;238;1218;-77
2021/06/08 04:58:06;;;;;;;;;;;21.70;52.90;;;;;;499763;238;987;-77
2021/06/08 05:00:08;;;;;;;;;;;21.70;52.90;;;;;;499808;238;1025;-77
2021/06/08 05:02:09;;;;;;;;;;;21.70;52.90;;;;;;499711;234;2172;-77
2021/06/08 05:04:11;;;;;;;;;;;21.70;52.90;;;;;;499752;238;1028;-76
2021/06/08 05:06:12;;;;;;;;;;;21.80;52.90;;;;;;499529;238;1359;-76
2021/06/08 05:08:13;;;;;;;;;;;21.80;52.90;;;;;;499650;238;1033;-76
2021/06/08 05:10:14;;;;;;;;;;;21.70;52.80;;;;;;499696;238;1028;-77
2021/06/08 05:12:16;;;;;;;;;;;21.80;52.70;;;;;;499644;238;1039;-76
2021/06/08 05:14:17;;;;;;;;;;;21.80;52.70;;;;;;499670;238;1081;-76
2021/06/08 05:16:18;;;;;;;;;;;21.80;52.60;;;;;;499641;238;1038;-76
2021/06/08 05:18:19;;;;;;;;;;;21.80;52.70;;;;;;499699;238;1045;-76
2021/06/08 05:20:21;;;;;;;;;;;21.80;52.80;;;;;;499622;238;1166;-76
2021/06/08 05:22:22;;;;;;;;;;;21.80;52.80;;;;;;499599;238;2201;-77
2021/06/08 05:24:24;;;;;;;;;;;21.80;52.80;;;;;;499585;238;1065;-77
2021/06/08 05:26:25;;;;;;;;;;;21.70;52.80;;;;;;499453;238;1043;-77
2021/06/08 05:28:26;;;;;;;;;;;21.70;52.80;;;;;;499526;238;1029;-76
2021/06/08 05:30:27;;;;;;;;;;;21.70;52.80;;;;;;499743;238;1127;-77
2021/06/08 05:32:29;;;;;;;;;;;21.80;52.80;;;;;;499487;238;1036;-76
2021/06/08 05:34:30;;;;;;;;;;;21.80;52.70;;;;;;499605;238;1060;-77
2021/06/08 05:36:31;;;;;;;;;;;21.80;52.90;;;;;;499559;238;1643;-77
2021/06/08 05:38:33;;;;;;;;;;;21.80;52.90;;;;;;499600;238;1045;-77
2021/06/08 05:40:36;;;;;;;;;;;21.80;52.90;;;;;;499592;238;974;-76
2021/06/08 05:42:35;;;;;;;;;;;21.80;52.90;;;;;;499474;238;2187;-76
2021/06/08 05:44:37;;;;;;;;;;;21.80;52.70;;;;;;499523;238;1085;-77
2021/06/08 05:46:38;;;;;;;;;;;21.80;52.70;;;;;;499496;238;1046;-77
2021/06/08 05:48:39;;;;;;;;;;;21.80;52.70;;;;;;499614;238;1127;-77
2021/06/08 05:50:40;;;;;;;;;;;21.80;52.80;;;;;;499590;238;1144;-77
2021/06/08 05:52:42;;;;;;;;;;;21.80;52.80;;;;;;499516;238;1060;-76
2021/06/08 05:54:43;;;;;;;;;;;21.80;52.80;;;;;;499244;238;1013;-77
2021/06/08 05:56:44;;;;;;;;;;;21.80;52.80;;;;;;499143;238;1311;-77
2021/06/08 05:58:45;;;;;;;;;;;21.70;52.90;;;;;;499476;235;1295;-77
2021/06/08 06:00:47;;;;;;;;;;;21.80;52.90;;;;;;499390;238;1749;-77
2021/06/08 06:02:48;;;;;;;;;;;21.80;52.80;;;;;;499132;238;2175;-77
2021/06/08 06:04:49;;;;;;;;;;;21.80;52.90;;;;;;498971;238;1024;-77
2021/06/08 06:06:51;;;;;;;;;;;21.80;52.80;;;;;;499052;234;1328;-77
2021/06/08 06:08:52;;;;;;;;;;;21.90;52.60;;;;;;499082;238;998;-77
2021/06/08 06:10:53;;;;;;;;;;;21.90;52.70;;;;;;499174;238;1119;-76
2021/06/08 06:12:54;;;;;;;;;;;21.90;52.70;;;;;;499302;238;1122;-76
2021/06/08 06:15:03;;;;;;;;;;;21.90;52.60;;;;;;499239;238;1134;-77
2021/06/08 06:16:57;;;;;;;;;;;22.00;52.70;;;;;;499086;238;1459;-77
2021/06/08 06:19:00;;;;;;;;;;;21.90;52.60;;;;;;499303;238;1029;-77
2021/06/08 06:21:00;;;;;;;;;;;21.90;52.80;;;;;;499172;238;1310;-77
2021/06/08 06:23:01;;;;;;;;;;;21.90;52.80;;;;;;499227;238;2187;-76
2021/06/08 06:25:02;;;;;;;;;;;21.90;52.80;;;;;;499216;238;1022;-76
2021/06/08 06:27:04;;;;;;;;;;;21.90;52.80;;;;;;499120;238;1193;-77
2021/06/08 06:29:05;;;;;;;;;;;21.90;52.80;;;;;;499392;238;976;-77
2021/06/08 06:31:06;;;;;;;;;;;21.90;52.70;;;;;;499226;238;1058;-76
2021/06/08 06:33:08;;;;;;;;;;;21.80;52.80;;;;;;499166;238;1169;-77
2021/06/08 06:35:09;;;;;;;;;;;21.70;53.00;;;;;;499207;238;1070;-77
2021/06/08 06:37:12;;;;;;;;;;;21.80;53.10;;;;;;499170;238;1337;-76
2021/06/08 06:39:11;;;;;;;;;;;21.80;53.00;;;;;;499021;238;1330;-76
2021/06/08 06:41:13;;;;;;;;;;;21.80;53.10;;;;;;499043;238;1052;-77
2021/06/08 06:43:14;;;;;;;;;;;21.80;53.00;;;;;;499112;238;2184;-76
2021/06/08 06:45:15;;;;;;;;;;;21.80;53.00;;;;;;499325;238;1050;-77
2021/06/08 06:47:17;;;;;;;;;;;21.90;53.00;;;;;;499332;238;1077;-77
2021/06/08 06:49:18;;;;;;;;;;;21.90;53.00;;;;;;499278;238;1043;-77
2021/06/08 06:51:19;;;;;;;;;;;21.90;53.10;;;;;;499373;238;1442;-77
2021/06/08 06:53:21;;;;;;;;;;;21.90;53.00;;;;;;499303;238;1101;-77
2021/06/08 06:55:22;;;;;;;;;;;21.90;53.10;;;;;;499049;238;1343;-77
2021/06/08 06:57:23;;;;;;;;;;;21.90;53.00;;;;;;498770;238;1300;-77
2021/06/08 06:59:25;;;;;;;;;;;21.90;53.00;;;;;;499102;238;1073;-77
2021/06/08 07:01:26;;;;;;;;;;;21.90;53.00;;;;;;498870;238;1280;-77
2021/06/08 07:03:27;;;;;;;;;;;21.90;53.00;;;;;;499003;238;2187;-77
2021/06/08 07:05:28;;;;;;;;;;;21.90;53.10;;;;;;499120;238;1188;-76
2021/06/08 07:07:30;;;;;;;;;;;22.00;53.00;;;;;;499268;238;1146;-76
2021/06/08 07:09:31;;;;;;;;;;;21.90;53.00;;;;;;498932;234;1126;-77
2021/06/08 07:11:32;;;;;;;;;;;21.90;53.10;;;;;;498710;238;1278;-76
2021/06/08 07:13:34;;;;;;;;;;;21.90;53.00;;;;;;498993;238;1264;-76
2021/06/08 07:15:35;;;;;;;;;;;22.00;52.90;;;;;;499295;238;1143;-76
2021/06/08 07:17:36;;;;;;;;;;;22.00;52.90;;;;;;499402;238;962;-77
2021/06/08 07:19:37;;;;;;;;;;;22.00;52.90;;;;;;499135;238;1101;-76
2021/06/08 07:21:39;;;;;;;;;;;22.00;53.00;;;;;;499024;235;1294;-76
2021/06/08 07:23:40;;;;;;;;;;;22.00;53.00;;;;;;498966;238;2195;-77
2021/06/08 07:25:41;;;;;;;;;;;22.00;52.90;;;;;;499102;234;1274;-76
2021/06/08 07:27:42;;;;;;;;;;;21.90;53.00;;;;;;499021;238;1076;-76
2021/06/08 07:29:44;;;;;;;;;;;21.90;53.20;;;;;;498885;238;1034;-76
2021/06/08 07:31:45;;;;;;;;;;;21.90;53.20;;;;;;498880;238;1203;-76
2021/06/08 07:33:47;;;;;;;;;;;21.90;53.40;;;;;;498944;238;1009;-76
2021/06/08 07:35:48;;;;;;;;;;;21.90;53.30;;;;;;499100;238;1309;-76
2021/06/08 07:37:49;;;;;;;;;;;21.90;53.30;;;;;;498920;238;1057;-77
2021/06/08 07:39:50;;;;;;;;;;;21.90;53.40;;;;;;498964;238;1083;-76
2021/06/08 07:41:52;;;;;;;;;;;21.90;53.30;;;;;;499011;238;1195;-76
2021/06/08 07:43:53;;;;;;;;;;;22.00;53.30;;;;;;498792;238;2129;-76
2021/06/08 07:45:54;;;;;;;;;;;21.90;53.30;;;;;;498915;238;1160;-76
2021/06/08 07:47:55;;;;;;;;;;;21.90;53.40;;;;;;498996;238;1045;-76
2021/06/08 07:49:57;;;;;;;;;;;21.90;53.40;;;;;;498727;238;1103;-77
2021/06/08 07:51:58;;;;;;;;;;;21.90;53.40;;;;;;498842;238;1091;-77
2021/06/08 07:53:59;;;;;;;;;;;21.90;53.30;;;;;;498947;238;1143;-76
2021/06/08 07:56:01;;;;;;;;;;;21.90;53.40;;;;;;498793;238;1406;-76
2021/06/08 07:58:03;;;;;;;;;;;22.00;53.30;;;;;;499049;238;1035;-77
2021/06/08 08:00:04;;;;;;;;;;;22.00;53.30;;;;;;499263;238;1241;-77
2021/06/08 08:02:05;;;;;;;;;;;22.00;53.30;;;;;;499017;238;1132;-76
2021/06/08 08:04:09;;;;;;;;;;;22.00;53.20;;;;;;498901;238;2184;-76
2021/06/08 08:06:09;;;;;;;;;;;22.00;53.20;;;;;;498745;238;1410;-76
2021/06/08 08:08:13;;;;;;;;;;;22.00;53.20;;;;;;499512;238;1036;-77
2021/06/08 08:10:11;;;;;;;;;;;21.90;53.50;;;;;;498611;238;1267;-77
2021/06/08 08:12:12;;;;;;;;;;;21.90;53.50;;;;;;498335;238;1014;-77
2021/06/08 08:14:14;;;;;;;;;;;22.00;53.40;;;;;;499338;238;1095;-77
2021/06/08 08:16:15;;;;;;;;;;;22.00;53.30;;;;;;499031;234;1434;-77
2021/06/08 08:18:16;;;;;;;;;;;22.00;53.40;;;;;;499256;235;1175;-77
2021/06/08 08:20:18;;;;;;;;;;;21.90;53.40;;;;;;499046;238;1034;-77
2021/06/08 08:22:19;;;;;;;;;;;21.90;53.60;;;;;;499015;238;1139;-76
2021/06/08 08:24:20;;;;;;;;;;;21.90;53.70;;;;;;498915;238;2163;-76
2021/06/08 08:26:22;;;;;;;;;;;21.90;53.60;;;;;;498682;238;1167;-76
2021/06/08 08:28:25;;;;;;;;;;;21.90;53.60;;;;;;498980;238;1063;-76
2021/06/08 08:30:24;;;;;;;;;;;21.90;53.80;;;;;;498933;238;1224;-77
2021/06/08 08:32:25;;;;;;;;;;;21.90;53.80;;;;;;498926;238;1090;-77
2021/06/08 08:34:27;;;;;;;;;;;21.90;53.80;;;;;;498921;238;1162;-76
2021/06/08 08:36:28;;;;;;;;;;;21.90;53.70;;;;;;498724;238;1221;-76
2021/06/08 08:38:29;;;;;;;;;;;22.00;53.70;;;;;;498832;238;1176;-76
2021/06/08 08:40:31;;;;;;;;;;;21.90;53.70;;;;;;498598;238;1018;-76
2021/06/08 08:42:32;;;;;;;;;;;21.90;53.70;;;;;;499104;238;2180;-76
2021/06/08 08:44:33;;;;;;;;;;;21.90;53.70;;;;;;498617;238;1027;-77
2021/06/08 08:46:34;;;;;;;;;;;21.90;53.70;;;;;;498485;234;1212;-76
2021/06/08 08:48:36;;;;;;;;;;;21.90;53.80;;;;;;498407;238;1033;-76
2021/06/08 08:50:37;;;;;;;;;;;21.90;53.70;;;;;;498495;238;1408;-77
2021/06/08 08:52:38;;;;;;;;;;;22.00;53.70;;;;;;498541;238;1059;-77
2021/06/08 08:54:39;;;;;;;;;;;22.00;53.70;;;;;;498691;238;1128;-76
2021/06/08 08:56:41;;;;;;;;;;;22.00;53.70;;;;;;498629;238;1135;-76
2021/06/08 08:58:42;;;;;;;;;;;22.00;53.60;;;;;;498687;238;1301;-76
2021/06/08 09:00:44;;;;;;;;;;;22.10;53.60;;;;;;498708;238;1177;-76
2021/06/08 09:02:45;;;;;;;;;;;22.10;53.50;;;;;;498778;238;2180;-76
2021/06/08 09:04:46;;;;;;;;;;;22.10;53.50;;;;;;498604;238;1060;-76
2021/06/08 09:06:47;;;;;;;;;;;22.10;53.70;;;;;;498524;238;1247;-77
2021/06/08 09:08:48;;;;;;;;;;;22.10;53.70;;;;;;498677;238;1112;-76
2021/06/08 09:10:50;;;;;;;;;;;22.10;53.70;;;;;;498669;238;1479;-76
2021/06/08 09:12:51;;;;;;;;;;;22.00;53.80;;;;;;498926;238;1319;-76
2021/06/08 09:14:52;;;;;;;;;;;22.00;53.90;;;;;;498623;238;1040;-76
2021/06/08 09:16:54;;;;;;;;;;;22.00;53.90;;;;;;498827;238;1017;-76
2021/06/08 09:18:55;;;;;;;;;;;22.00;53.80;;;;;;498717;238;1045;-76
2021/06/08 09:20:56;;;;;;;;;;;22.00;53.80;;;;;;498764;238;1246;-76
2021/06/08 09:22:57;;;;;;;;;;;22.00;53.70;;;;;;499635;238;2179;-76
2021/06/08 09:24:59;;;;;;;;;;;22.00;53.70;;;;;;499611;238;1478;-76
2021/06/08 09:27:00;;;;;;;;;;;22.10;53.80;;;;;;499614;238;1062;-76
2021/06/08 09:29:01;;;;;;;;;;;22.00;53.80;;;;;;499503;235;1108;-76
2021/06/08 09:31:03;;;;;;;;;;;22.00;53.90;;;;;;499586;238;1035;-76
2021/06/08 09:33:04;;;;;;;;;;;22.00;53.90;;;;;;499062;238;1043;-77
2021/06/08 09:35:05;;;;;;;;;;;22.00;54.00;;;;;;498944;238;1000;-77
2021/06/08 09:37:06;;;;;;;;;;;22.00;54.10;;;;;;498768;238;1106;-76
2021/06/08 09:39:10;;;;;;;;;;;21.90;53.90;;;;;;498875;238;1158;-77
2021/06/08 09:41:09;;;;;;;;;;;21.90;54.10;;;;;;499041;238;1402;-77
2021/06/08 09:43:11;;;;;;;;;;;21.90;54.10;;;;;;498875;238;2180;-77
2021/06/08 09:45:12;;;;;;;;;;;22.00;54.10;;;;;;498962;238;1142;-77
2021/06/08 09:47:13;;;;;;;;;;;22.00;54.00;;;;;;499010;238;1053;-77
2021/06/08 09:49:15;;;;;;;;;;;22.00;54.10;;;;;;498847;238;1646;-77
2021/06/08 09:51:16;;;;;;;;;;;22.00;54.00;;;;;;498849;238;1118;-77
2021/06/08 09:53:17;;;;;;;;;;;22.10;53.90;;;;;;498820;238;1046;-78
2021/06/08 09:55:19;;;;;;;;;;;22.10;53.70;;;;;;498626;238;1217;-77
2021/06/08 09:57:20;;;;;;;;;;;22.10;53.70;;;;;;498587;238;1232;-77
2021/06/08 09:59:21;;;;;;;;;;;22.10;53.80;;;;;;498939;238;1133;-77
2021/06/08 10:01:22;;;;;;;;;;;22.10;53.90;;;;;;498814;238;1236;-77
2021/06/08 10:03:24;;;;;;;;;;;22.00;54.00;;;;;;498721;238;2180;-76
2021/06/08 10:05:25;;;;;;;;;;;22.00;53.90;;;;;;498900;238;1176;-77
2021/06/08 10:07:26;;;;;;;;;;;22.00;53.90;;;;;;498908;238;1315;-77
2021/06/08 10:09:28;;;;;;;;;;;22.00;53.90;;;;;;498882;238;1182;-77
2021/06/08 10:11:29;;;;;;;;;;;22.00;53.90;;;;;;498569;234;1448;-77
2021/06/08 10:13:30;;;;;;;;;;;22.00;53.90;;;;;;498250;238;1011;-77
2021/06/08 10:15:31;;;;;;;;;;;22.10;54.00;;;;;;498924;238;1183;-77
2021/06/08 10:17:33;;;;;;;;;;;22.00;53.90;;;;;;499085;238;1114;-76
2021/06/08 10:19:34;;;;;;;;;;;22.00;53.90;;;;;;498995;238;1028;-77
2021/06/08 10:21:35;;;;;;;;;;;22.00;53.80;;;;;;499098;238;1212;-77
2021/06/08 10:23:36;;;;;;;;;;;22.00;53.90;;;;;;499387;238;2168;-77
2021/06/08 10:25:38;;;;;;;;;;;22.10;53.80;;;;;;498958;238;1182;-77
2021/06/08 10:27:39;;;;;;;;;;;22.10;53.70;;;;;;499162;238;1277;-76
2021/06/08 10:29:41;;;;;;;;;;;22.10;53.80;;;;;;499073;238;1398;-76
2021/06/08 10:31:42;;;;;;;;;;;22.00;54.00;;;;;;498633;238;1269;-76
2021/06/08 10:33:43;;;;;;;;;;;22.00;54.20;;;;;;498449;238;1053;-77
2021/06/08 10:35:44;;;;;;;;;;;22.00;54.30;;;;;;498733;238;1080;-77
2021/06/08 10:37:45;;;;;;;;;;;22.00;54.20;;;;;;498995;238;1240;-77
2021/06/08 10:39:47;;;;;;;;;;;22.00;54.10;;;;;;498931;238;1126;-77
2021/06/08 10:41:48;;;;;;;;;;;22.00;54.10;;;;;;498876;238;1124;-76
2021/06/08 10:43:49;;;;;;;;;;;22.00;54.20;;;;;;498916;238;2120;-77
2021/06/08 10:45:52;;;;;;;;;;;22.00;54.20;;;;;;498799;238;1431;-77
2021/06/08 10:47:55;;;;;;;;;;;22.00;54.10;;;;;;498922;238;1389;-77
2021/06/08 10:49:55;;;;;;;;;;;22.00;54.10;;;;;;499126;235;1406;-76
2021/06/08 10:51:55;;;;;;;;;;;22.00;54.10;;;;;;498896;238;1137;-77
2021/06/08 10:53:57;;;;;;;;;;;22.10;53.90;;;;;;499039;238;1045;-77
2021/06/08 10:55:58;;;;;;;;;;;22.10;53.90;;;;;;498936;238;1322;-77
2021/06/08 10:57:59;;;;;;;;;;;22.10;54.00;;;;;;499188;238;1227;-77
2021/06/08 11:00:01;;;;;;;;;;;22.00;54.00;;;;;;498794;238;1075;-77
2021/06/08 11:02:02;;;;;;;;;;;22.00;54.00;;;;;;498884;238;1065;-77
2021/06/08 11:04:03;;;;;;;;;;;22.00;53.90;;;;;;498887;238;2125;-77
2021/06/08 11:06:05;;;;;;;;;;;22.00;54.00;;;;;;499345;234;1419;-77
2021/06/08 11:08:06;;;;;;;;;;;22.00;54.00;;;;;;498918;238;1334;-77
2021/06/08 11:10:07;;;;;;;;;;;22.00;54.00;;;;;;498841;238;1126;-77
2021/06/08 11:12:09;;;;;;;;;;;22.00;53.90;;;;;;498987;238;1303;-77
2021/06/08 11:14:10;;;;;;;;;;;22.00;54.00;;;;;;499711;238;912;-76
2021/06/08 11:16:11;;;;;;;;;;;22.00;54.10;;;;;;499651;238;1161;-76
2021/06/08 11:18:12;;;;;;;;;;;21.90;54.20;;;;;;499607;238;907;-76
2021/06/08 11:20:14;;;;;;;;;;;21.90;54.20;;;;;;498838;238;1046;-76
2021/06/08 11:22:15;;;;;;;;;;;22.00;54.20;;;;;;498758;238;1071;-76
2021/06/08 11:24:16;;;;;;;;;;;21.90;54.20;;;;;;499123;238;2179;-76
2021/06/08 11:26:18;;;;;;;;;;;22.00;54.20;;;;;;499045;238;1162;-76
2021/06/08 11:28:19;;;;;;;;;;;22.00;54.20;;;;;;498970;238;1199;-76
2021/06/08 11:30:20;;;;;;;;;;;22.00;54.20;;;;;;499183;238;1031;-77
2021/06/08 11:32:22;;;;;;;;;;;22.00;54.10;;;;;;499039;238;1106;-77
2021/06/08 11:34:27;;;;;;;;;;;22.00;54.10;;;;;;499068;238;1191;-77
2021/06/08 11:36:25;;;;;;;;;;;22.00;54.00;;;;;;498907;238;1617;-77
2021/06/08 11:38:25;;;;;;;;;;;22.00;54.00;;;;;;498926;238;1315;-77
2021/06/08 11:40:27;;;;;;;;;;;22.00;54.00;;;;;;498874;234;1288;-76
2021/06/08 11:42:28;;;;;;;;;;;22.00;54.00;;;;;;499155;238;1166;-77
2021/06/08 11:44:29;;;;;;;;;;;22.00;54.10;;;;;;498941;238;2184;-77
2021/06/08 11:46:31;;;;;;;;;;;22.00;54.00;;;;;;498943;238;1226;-77
2021/06/08 11:48:32;;;;;;;;;;;22.00;54.00;;;;;;498919;238;1044;-77
2021/06/08 11:50:33;;;;;;;;;;;22.00;54.00;;;;;;498914;238;1179;-77
2021/06/08 11:52:34;;;;;;;;;;;21.90;54.30;;;;;;498888;238;1118;-77
2021/06/08 11:54:36;;;;;;;;;;;21.90;54.20;;;;;;498939;238;1056;-77
2021/06/08 11:56:37;;;;;;;;;;;22.00;53.90;;;;;;498976;238;1264;-77